Time;durP1;ratioP1;P1;durP2;ratioP2;P2;SDS_P1;SDS_P2;PMS_P1;PMS_P2;Temp;Humidity;BMP_temperature;BMP_pressure;BME280_temperature;BME280_humidity;BME280_pressure;Samples;Min_cycle;Max_cycle;Signal;HPM_P1;HPM_P2
2022/01/14 00:01:37;;;;;;;2.00;1.27;;;;;;;5.66;59.51;97016.53;3402993;29;20585;-71
2022/01/14 00:03:17;;;;;;;2.13;1.33;;;;;;;5.67;59.36;97012.84;3397364;29;20586;-70
2022/01/14 00:04:58;;;;;;;1.10;1.00;;;;;;;5.67;59.21;97018.13;3389891;29;20288;-71
2022/01/14 00:06:39;;;;;;;3.42;1.30;;;;;;;5.70;59.13;97001.00;3392043;29;20040;-71
2022/01/14 00:08:20;;;;;;;1.58;0.90;;;;;;;5.73;59.14;96999.75;3389983;29;20076;-71
2022/01/14 00:10:01;;;;;;;1.20;1.10;;;;;;;5.75;59.54;96993.19;3389815;29;20051;-71
2022/01/14 00:11:49;;;;;;;1.73;1.30;;;;;;;5.76;59.48;97001.94;3396114;29;20050;-71
2022/01/14 00:15:27;;;;;;;0.93;0.88;;;;;;;5.78;59.26;96991.94;3397463;29;20040;-70
2022/01/14 00:17:09;;;;;;;0.98;0.88;;;;;;;5.78;59.12;96998.03;3403060;29;20058;-71
2022/01/14 00:18:50;;;;;;;0.90;0.85;;;;;;;5.81;59.21;96986.22;3401512;29;20040;-71
2022/01/14 00:20:31;;;;;;;1.35;0.90;;;;;;;5.84;59.24;96975.97;3401920;29;20044;-70
2022/01/14 00:22:15;;;;;;;2.63;0.88;;;;;;;5.84;59.11;96973.31;3402928;29;20043;-71
2022/01/14 00:24:23;;;;;;;1.00;0.88;;;;;;;5.88;59.15;96965.72;3397834;29;20127;-73
2022/01/14 00:33:49;;;;;;;2.33;0.90;;;;;;;5.93;59.68;96944.69;3394993;29;20040;-71
2022/01/14 00:35:30;;;;;;;0.80;0.80;;;;;;;5.95;59.65;96942.66;3391349;29;20043;-70
2022/01/14 00:37:12;;;;;;;1.15;1.05;;;;;;;5.96;59.61;96946.88;3375498;29;20052;-70
2022/01/14 00:38:53;;;;;;;1.17;0.95;;;;;;;5.98;59.91;96950.09;3391899;29;20036;-71
2022/01/14 00:40:34;;;;;;;1.77;1.10;;;;;;;5.97;60.00;96943.22;3389427;29;20040;-71
2022/01/14 00:42:14;;;;;;;0.95;0.95;;;;;;;5.98;60.02;96934.25;3389875;29;20044;-70
2022/01/14 00:44:01;;;;;;;1.35;0.93;;;;;;;5.99;60.25;96933.22;3365907;29;20047;-71
2022/01/14 00:45:42;;;;;;;0.95;0.93;;;;;;;5.99;60.29;96920.00;3390093;29;20071;-71
2022/01/14 00:47:23;;;;;;;1.13;0.70;;;;;;;6.02;60.23;96908.16;3389400;29;20059;-70
2022/01/14 00:49:04;;;;;;;1.17;0.85;;;;;;;6.05;60.15;96905.84;3389508;29;20048;-70
2022/01/14 00:50:44;;;;;;;1.25;0.90;;;;;;;6.07;60.36;96890.56;3390793;29;20143;-72
2022/01/14 00:52:25;;;;;;;0.75;0.75;;;;;;;6.07;60.42;96885.28;3402326;29;20043;-71
2022/01/14 00:54:06;;;;;;;0.63;0.63;;;;;;;6.10;60.54;96884.00;3401385;29;20055;-71
2022/01/14 00:55:58;;;;;;;1.48;1.00;;;;;;;6.11;60.43;96883.75;3401734;29;20035;-71
2022/01/14 00:59:38;;;;;;;0.55;0.55;;;;;;;6.16;60.20;96882.25;3402725;29;20092;-71
2022/01/14 01:01:19;;;;;;;1.73;0.75;;;;;;;6.18;60.11;96888.13;3398869;29;20055;-70
2022/01/14 01:03:01;;;;;;;2.70;0.75;;;;;;;6.19;60.12;96882.56;3393150;29;20570;-71
2022/01/14 01:04:41;;;;;;;1.75;1.25;;;;;;;6.23;60.09;96877.63;3402100;29;20123;-70
2022/01/14 01:06:22;;;;;;;0.70;0.70;;;;;;;6.26;60.17;96863.94;3395610;29;20139;-71
2022/01/14 01:08:09;;;;;;;0.60;0.60;;;;;;;6.36;60.01;96871.25;3375253;29;20048;-71
2022/01/14 01:09:50;;;;;;;1.15;0.70;;;;;;;6.43;60.04;96851.56;3396490;29;20047;-72
2022/01/14 01:11:35;;;;;;;0.60;0.60;;;;;;;6.46;60.19;96842.34;3387435;29;20096;-71
2022/01/14 01:13:22;;;;;;;1.30;0.70;;;;;;;6.45;60.37;96844.16;3399967;29;20048;-72
2022/01/14 01:15:09;;;;;;;0.55;0.55;;;;;;;6.45;60.38;96833.56;3402003;29;20048;-71
2022/01/14 01:16:49;;;;;;;0.60;0.60;;;;;;;6.46;60.11;96821.97;3401490;29;20126;-72
2022/01/14 01:18:30;;;;;;;0.50;0.50;;;;;;;6.50;60.18;96823.06;3401959;29;20392;-70
2022/01/14 01:20:13;;;;;;;0.70;0.70;;;;;;;6.55;60.37;96815.22;3401987;29;20107;-70
2022/01/14 01:21:53;;;;;;;0.70;0.70;;;;;;;6.61;60.10;96820.59;3401196;29;20364;-74
2022/01/14 01:23:46;;;;;;;0.50;0.50;;;;;;;6.70;59.64;96817.31;3386416;29;20040;-70
2022/01/14 01:25:36;;;;;;;0.70;0.70;;;;;;;6.78;59.38;96810.81;3391510;29;20040;-71
2022/01/14 01:27:19;;;;;;;2.50;0.60;;;;;;;6.87;59.84;96817.34;3393102;29;20040;-70
2022/01/14 01:31:34;;;;;;;1.17;1.00;;;;;;;7.06;59.38;96827.66;3401888;29;20043;-70
2022/01/14 01:32:59;;;;;;;0.50;0.50;;;;;;;7.12;59.03;96813.44;3398805;29;20138;-70
2022/01/14 01:34:44;;;;;;;1.35;0.70;;;;;;;7.18;58.61;96810.63;3374952;29;20500;-70
2022/01/14 01:36:24;;;;;;;1.20;0.80;;;;;;;7.21;58.49;96817.28;3394033;29;21019;-71
2022/01/14 01:38:05;;;;;;;0.80;0.60;;;;;;;7.24;58.57;96818.66;3390363;29;20040;-70
2022/01/14 01:39:46;;;;;;;0.63;0.60;;;;;;;7.24;58.55;96808.84;3388757;29;20204;-71
2022/01/14 01:41:27;;;;;;;0.90;0.60;;;;;;;7.24;58.96;96805.41;3388623;29;20097;-69
2022/01/14 01:43:10;;;;;;;0.85;0.80;;;;;;;7.24;59.01;96808.06;3398888;29;20043;-73
2022/01/14 01:44:50;;;;;;;1.13;0.85;;;;;;;7.24;58.87;96800.91;3401845;29;20104;-69
2022/01/14 01:46:31;;;;;;;0.52;0.52;;;;;;;7.26;58.62;96790.88;3391298;29;20044;-71
2022/01/14 01:48:12;;;;;;;0.82;0.38;;;;;;;7.33;58.37;96780.09;3390689;29;20044;-69
2022/01/14 01:49:53;;;;;;;0.55;0.55;;;;;;;7.36;58.26;96775.13;3388756;29;20040;-69
2022/01/14 01:51:34;;;;;;;0.70;0.70;;;;;;;7.38;58.52;96757.13;3400089;29;20438;-71
2022/01/14 01:53:15;;;;;;;0.50;0.50;;;;;;;7.37;58.86;96760.00;3400127;29;20043;-69
2022/01/14 01:54:55;;;;;;;0.65;0.50;;;;;;;7.35;59.21;96760.25;3401180;29;20661;-70
2022/01/14 01:56:36;;;;;;;0.77;0.60;;;;;;;7.36;59.05;96763.72;3401040;29;20082;-70
2022/01/14 01:58:17;;;;;;;1.95;0.50;;;;;;;7.38;59.21;96778.31;3400912;29;20099;-71
2022/01/14 01:59:58;;;;;;;0.70;0.70;;;;;;;7.42;59.50;96784.72;3401532;29;20539;-71
2022/01/14 02:01:39;;;;;;;1.38;0.50;;;;;;;7.41;59.30;96785.78;3400754;29;20503;-71
2022/01/14 02:03:20;;;;;;;0.50;0.50;;;;;;;7.48;58.76;96766.22;3386770;29;20108;-72
2022/01/14 02:05:01;;;;;;;0.68;0.68;;;;;;;7.51;58.56;96760.44;3387267;29;20043;-72
2022/01/14 02:06:43;;;;;;;;;;;;;;;7.63;57.97;96747.84;3399045;29;20048;-71
2022/01/14 02:08:23;;;;;;;0.60;0.60;;;;;;;7.59;58.24;96752.88;3401389;29;19929;-71
2022/01/14 02:10:05;;;;;;;0.85;0.80;;;;;;;7.60;58.42;96756.31;3401395;29;20054;-70
2022/01/14 02:11:46;;;;;;;0.80;0.80;;;;;;;7.61;58.47;96749.94;3401376;29;20049;-71
2022/01/14 02:13:26;;;;;;;0.70;0.45;;;;;;;7.64;58.25;96746.81;3400153;29;20425;-70
2022/01/14 02:15:14;;;;;;;0.80;0.70;;;;;;;7.68;58.77;96731.22;3401667;29;20535;-71
2022/01/14 02:22:54;;;;;;;0.38;0.38;;;;;;;7.76;58.25;96715.66;3400732;29;20130;-70
2022/01/14 02:26:17;;;;;;;0.82;0.50;;;;;;;7.81;58.26;96702.44;3397281;29;20111;-71
2022/01/14 02:27:59;;;;;;;;;;;;;;;7.93;57.66;96699.66;3387956;29;20044;-69
2022/01/14 02:29:40;;;;;;;0.60;0.60;;;;;;;7.89;57.66;96684.50;3398918;29;19969;-70
2022/01/14 02:31:21;;;;;;;0.50;0.50;;;;;;;7.88;57.88;96688.22;3401142;29;20047;-71
2022/01/14 02:33:02;;;;;;;3.95;0.50;;;;;;;7.88;57.88;96690.88;3395022;29;20059;-70
2022/01/14 02:34:43;;;;;;;0.65;0.50;;;;;;;7.90;57.81;96680.78;3399545;29;20047;-71
2022/01/14 02:36:25;;;;;;;1.17;0.47;;;;;;;7.92;57.68;96691.94;3387585;29;20044;-71
2022/01/14 02:38:08;;;;;;;0.68;0.68;;;;;;;7.92;57.82;96682.13;3384147;29;20135;-71
2022/01/14 02:39:48;;;;;;;0.50;0.50;;;;;;;7.93;58.03;96682.97;3387446;29;20515;-71
2022/01/14 02:41:29;;;;;;;0.75;0.50;;;;;;;7.92;57.96;96676.03;3388325;29;20083;-70
2022/01/14 02:43:15;;;;;;;0.40;0.40;;;;;;;7.94;57.37;96666.78;3384949;29;20066;-71
2022/01/14 02:45:01;;;;;;;0.40;0.40;;;;;;;7.98;57.38;96664.44;3386504;29;20040;-72
2022/01/14 02:46:49;;;;;;;0.45;0.40;;;;;;;8.02;57.05;96658.34;3388465;29;20044;-70
2022/01/14 02:48:30;;;;;;;0.47;0.47;;;;;;;8.03;57.28;96646.72;3389046;29;20044;-71
2022/01/14 02:50:19;;;;;;;1.75;0.40;;;;;;;8.04;57.57;96656.25;3401503;29;20055;-70
2022/01/14 02:52:04;;;;;;;0.52;0.45;;;;;;;8.04;58.09;96650.16;3401349;29;20039;-72
2022/01/14 02:53:57;;;;;;;0.40;0.40;;;;;;;8.03;57.96;96645.91;3399738;29;20036;-72
2022/01/14 02:55:43;;;;;;;0.73;0.60;;;;;;;8.04;57.68;96636.91;3391322;29;20040;-73
2022/01/14 02:57:23;;;;;;;1.63;0.70;;;;;;;8.06;57.60;96637.44;3401343;29;20439;-72
2022/01/14 02:59:06;;;;;;;1.30;0.70;;;;;;;8.11;57.35;96620.78;3386489;29;20047;-70
2022/01/14 03:00:47;;;;;;;0.68;0.40;;;;;;;8.10;57.36;96625.25;3398552;29;20054;-70
2022/01/14 03:02:29;;;;;;;0.55;0.55;;;;;;;8.11;57.52;96629.53;3401253;29;20399;-71
2022/01/14 03:04:09;;;;;;;0.40;0.40;;;;;;;8.09;57.93;96621.81;3401067;29;20046;-70
2022/01/14 03:05:51;;;;;;;0.40;0.40;;;;;;;8.07;57.83;96617.81;3400877;29;20063;-71
2022/01/14 03:07:32;;;;;;;0.40;0.40;;;;;;;8.09;57.90;96623.69;3401265;29;20408;-70
2022/01/14 03:09:12;;;;;;;0.50;0.50;;;;;;;8.11;58.16;96610.97;3401747;29;20048;-71
2022/01/14 03:10:58;;;;;;;0.60;0.60;;;;;;;8.13;58.13;96608.03;3400846;29;20541;-71
2022/01/14 03:12:40;;;;;;;0.40;0.40;;;;;;;8.16;57.59;96616.31;3395640;29;20475;-70
2022/01/14 03:14:24;;;;;;;0.45;0.45;;;;;;;8.20;57.51;96598.00;3394271;29;20063;-71
2022/01/14 03:16:05;;;;;;;1.17;0.77;;;;;;;8.22;57.19;96590.59;3401446;29;20050;-71
2022/01/14 03:17:46;;;;;;;0.40;0.40;;;;;;;8.22;57.56;96588.75;3401337;29;20082;-71
2022/01/14 03:19:27;;;;;;;0.55;0.43;;;;;;;8.25;57.46;96579.47;3397967;29;20095;-72
2022/01/14 03:21:13;;;;;;;0.57;0.40;;;;;;;8.28;57.36;96587.72;3403590;29;20043;-71
2022/01/14 03:23:04;;;;;;;1.25;0.43;;;;;;;8.34;57.14;96577.13;3403973;29;20071;-72
2022/01/14 03:26:25;;;;;;;1.25;0.40;;;;;;;8.37;57.01;96561.50;3403188;29;20533;-72
2022/01/14 03:28:06;;;;;;;0.55;0.50;;;;;;;8.38;57.02;96557.00;3404208;29;20415;-71
2022/01/14 03:29:47;;;;;;;0.50;0.40;;;;;;;8.37;57.15;96545.59;3403090;29;20604;-72
2022/01/14 03:31:27;;;;;;;1.58;0.40;;;;;;;8.38;57.22;96541.88;3402972;29;20047;-72
2022/01/14 03:33:09;;;;;;;0.57;0.57;;;;;;;8.39;57.14;96537.34;3388435;29;20052;-70
2022/01/14 03:34:49;;;;;;;0.65;0.60;;;;;;;8.39;57.28;96530.25;3389291;29;20055;-70
2022/01/14 03:36:30;;;;;;;0.40;0.40;;;;;;;8.40;58.07;96525.72;3403292;29;20594;-71
2022/01/14 03:38:11;;;;;;;0.57;0.50;;;;;;;8.44;57.84;96518.84;3403699;29;20042;-69
2022/01/14 03:39:51;;;;;;;0.40;0.40;;;;;;;8.47;57.34;96521.78;3403266;29;20047;-70
2022/01/14 03:41:32;;;;;;;0.35;0.35;;;;;;;8.49;57.42;96518.84;3402707;29;20047;-71
2022/01/14 03:43:13;;;;;;;3.20;0.60;;;;;;;8.46;57.39;96514.06;3403160;29;20040;-71
2022/01/14 03:44:54;;;;;;;1.90;0.60;;;;;;;8.47;57.22;96521.78;3403434;29;20043;-72
2022/01/14 03:46:34;;;;;;;1.05;0.60;;;;;;;8.49;57.26;96514.38;3390872;29;20036;-71
2022/01/14 03:48:15;;;;;;;1.50;0.70;;;;;;;8.50;57.41;96525.78;3390188;29;20044;-71
2022/01/14 03:49:56;;;;;;;2.65;0.50;;;;;;;8.52;57.43;96526.31;3390293;29;20123;-70
2022/01/14 03:51:37;;;;;;;0.68;0.52;;;;;;;8.52;57.79;96523.66;3403037;29;20051;-70
2022/01/14 03:53:18;;;;;;;1.75;0.82;;;;;;;8.54;57.52;96520.72;3402598;29;20109;-70
2022/01/14 03:54:59;;;;;;;3.65;0.70;;;;;;;8.54;57.60;96518.88;3396032;29;20036;-71
2022/01/14 03:56:39;;;;;;;2.58;0.85;;;;;;;8.56;57.65;96498.19;3388281;29;20131;-71
2022/01/14 03:58:20;;;;;;;0.85;0.52;;;;;;;8.57;57.45;96507.75;3400294;29;20059;-70
2022/01/14 04:00:01;;;;;;;1.85;0.47;;;;;;;8.60;57.66;96501.94;3403056;29;20043;-71
2022/01/14 04:01:41;;;;;;;1.75;0.45;;;;;;;8.63;57.88;96488.13;3401692;29;20092;-71
2022/01/14 04:03:22;;;;;;;7.88;0.90;;;;;;;8.60;57.73;96485.22;3402972;29;20076;-70
2022/01/14 04:05:03;;;;;;;1.00;0.65;;;;;;;8.55;57.64;96480.69;3403135;29;20050;-72
2022/01/14 04:06:44;;;;;;;3.22;0.52;;;;;;;8.52;57.86;96470.59;3399615;29;20040;-70
2022/01/14 04:08:24;;;;;;;1.00;0.75;;;;;;;8.50;57.87;96476.13;3403551;29;20063;-70
2022/01/14 04:10:10;;;;;;;2.55;0.60;;;;;;;8.47;57.70;96463.41;3402914;29;20091;-70
2022/01/14 04:11:51;;;;;;;0.40;0.40;;;;;;;8.49;57.59;96466.59;3402316;29;20059;-69
2022/01/14 04:15:37;;;;;;;2.53;0.88;;;;;;;8.50;57.51;96464.72;3402092;29;20039;-69
2022/01/14 04:17:18;;;;;;;1.25;0.60;;;;;;;8.48;57.63;96456.22;3401713;29;20084;-70
2022/01/14 04:18:59;;;;;;;1.98;0.80;;;;;;;8.44;57.74;96455.97;3400963;29;20432;-70
2022/01/14 04:20:41;;;;;;;0.95;0.70;;;;;;;8.44;57.59;96445.34;3402917;29;20166;-71
2022/01/14 04:22:21;;;;;;;1.95;0.73;;;;;;;8.46;57.52;96448.50;3403313;29;20044;-71
2022/01/14 04:24:02;;;;;;;1.27;0.70;;;;;;;8.47;57.80;96447.47;3402425;29;20046;-70
2022/01/14 04:25:43;;;;;;;1.25;0.60;;;;;;;8.47;57.76;96441.38;3396024;29;20039;-70
2022/01/14 04:27:24;;;;;;;1.80;1.02;;;;;;;8.45;57.86;96436.31;3380702;29;20575;-70
2022/01/14 04:29:05;;;;;;;2.53;1.03;;;;;;;8.44;57.75;96433.91;3387474;29;20067;-71
2022/01/14 04:30:47;;;;;;;2.15;1.02;;;;;;;8.42;57.75;96417.47;3390856;29;20663;-74
2022/01/14 04:32:27;;;;;;;2.50;1.07;;;;;;;8.40;58.17;96406.31;3383680;29;20590;-72
2022/01/14 04:34:08;;;;;;;1.95;0.60;;;;;;;8.40;57.60;96411.63;3389580;29;20292;-71
2022/01/14 04:35:49;;;;;;;1.13;0.80;;;;;;;8.42;57.78;96410.31;3389904;29;20384;-71
2022/01/14 04:37:29;;;;;;;1.00;0.90;;;;;;;8.45;57.65;96393.06;3395448;29;20043;-70
2022/01/14 04:39:10;;;;;;;2.00;0.73;;;;;;;8.49;57.38;96391.47;3402629;29;20043;-71
2022/01/14 04:40:52;;;;;;;3.00;0.90;;;;;;;8.51;57.43;96386.69;3402701;29;20122;-70
2022/01/14 04:42:33;;;;;;;1.20;0.73;;;;;;;8.54;57.35;96385.38;3402181;29;20044;-70
2022/01/14 04:44:14;;;;;;;2.55;1.27;;;;;;;8.59;57.10;96382.72;3388084;29;20100;-70
2022/01/14 04:47:46;;;;;;;2.15;0.80;;;;;;;8.69;57.36;96374.78;3400775;29;20503;-70
2022/01/14 04:49:27;;;;;;;1.88;0.60;;;;;;;8.71;57.25;96365.50;3402384;29;20044;-69
2022/01/14 04:51:10;;;;;;;6.88;0.85;;;;;;;8.78;58.23;96372.38;3402519;29;20087;-70
2022/01/14 04:52:51;;;;;;;2.60;0.90;;;;;;;8.84;57.42;96368.69;3387432;29;20605;-70
2022/01/14 04:54:32;;;;;;;3.17;0.80;;;;;;;8.85;56.96;96370.28;3399110;29;20043;-72
2022/01/14 04:56:13;;;;;;;5.57;0.98;;;;;;;8.86;57.24;96369.22;3395473;29;20044;-71
2022/01/14 04:57:55;;;;;;;3.95;1.13;;;;;;;8.89;57.26;96372.13;3393167;29;20043;-72
2022/01/14 04:59:36;;;;;;;3.85;0.90;;;;;;;8.90;57.04;96347.16;3401900;29;20044;-73
2022/01/14 05:01:17;;;;;;;3.45;1.10;;;;;;;8.91;57.20;96363.91;3402178;29;20052;-71
2022/01/14 05:02:58;;;;;;;3.00;1.50;;;;;;;8.86;57.27;96361.25;3402175;29;20043;-73
2022/01/14 05:04:39;;;;;;;3.42;1.23;;;;;;;8.86;57.83;96362.06;3402073;29;20047;-71
2022/01/14 05:06:20;;;;;;;3.15;1.10;;;;;;;8.89;57.54;96368.69;3401220;29;20055;-71
2022/01/14 05:08:01;;;;;;;3.80;1.10;;;;;;;8.94;56.86;96361.50;3399439;29;20714;-72
2022/01/14 05:09:46;;;;;;;2.70;1.10;;;;;;;8.96;56.72;96353.28;3401939;29;20520;-71
2022/01/14 05:11:38;;;;;;;2.92;1.38;;;;;;;8.98;56.77;96355.66;3402356;29;20043;-71
2022/01/14 05:13:20;;;;;;;1.63;0.98;;;;;;;8.98;56.46;96353.00;3400218;29;20051;-71
2022/01/14 05:15:02;;;;;;;8.65;1.40;;;;;;;8.96;56.34;96347.97;3402464;29;20063;-72
2022/01/14 05:16:42;;;;;;;1.58;0.85;;;;;;;8.95;56.54;96344.50;3401683;29;20039;-73
2022/01/14 05:18:23;;;;;;;2.33;0.80;;;;;;;8.92;56.72;96341.59;3399994;29;20049;-71
2022/01/14 05:20:05;;;;;;;1.77;0.80;;;;;;;8.93;56.80;96341.34;3391023;29;20134;-71
2022/01/14 05:21:46;;;;;;;1.67;1.10;;;;;;;8.96;56.98;96326.72;3375589;29;20056;-71
2022/01/14 05:23:27;;;;;;;1.85;1.30;;;;;;;8.97;56.96;96325.66;3388869;29;20036;-69
2022/01/14 05:25:09;;;;;;;2.45;1.10;;;;;;;8.94;57.35;96320.88;3397665;29;20082;-72
2022/01/14 05:26:51;;;;;;;2.53;1.00;;;;;;;8.97;56.96;96317.69;3407161;29;20202;-70
2022/01/14 05:28:32;;;;;;;3.53;1.10;;;;;;;9.01;56.73;96310.78;3404842;29;20075;-69
2022/01/14 05:30:14;;;;;;;2.08;1.02;;;;;;;9.04;57.52;96309.47;3415180;29;20031;-71
2022/01/14 05:32:03;;;;;;;5.53;1.20;;;;;;;9.06;57.69;96307.31;3418354;29;20055;-70
2022/01/14 05:33:46;;;;;;;3.72;1.10;;;;;;;9.05;57.21;96298.56;3412349;29;20054;-72
2022/01/14 05:35:27;;;;;;;4.97;0.90;;;;;;;9.08;56.98;96295.34;3409684;29;20039;-72
2022/01/14 05:37:09;;;;;;;1.85;0.77;;;;;;;9.13;57.09;96298.00;3382923;29;20044;-73
2022/01/14 05:38:50;;;;;;;2.05;0.80;;;;;;;9.16;57.17;96297.50;3394107;29;20055;-75
2022/01/14 05:40:31;;;;;;;2.55;1.08;;;;;;;9.20;57.00;96292.41;3401941;29;20521;-75
2022/01/14 05:42:13;;;;;;;2.78;1.60;;;;;;;9.22;56.88;96294.81;3386663;29;20112;-75
2022/01/14 05:43:54;;;;;;;1.08;0.80;;;;;;;9.21;56.99;96282.59;3387942;29;20411;-74
2022/01/14 05:45:37;;;;;;;0.80;0.80;;;;;;;9.23;57.78;96272.50;3388770;29;20048;-75
2022/01/14 05:47:18;;;;;;;5.05;1.33;;;;;;;9.25;57.37;96281.00;3388918;29;20507;-73
2022/01/14 05:48:58;;;;;;;1.38;0.88;;;;;;;9.22;57.31;96276.22;3395377;29;20141;-74
2022/01/14 05:50:39;;;;;;;5.78;1.08;;;;;;;9.21;57.56;96270.09;3398852;29;20044;-73
2022/01/14 05:52:21;;;;;;;2.03;0.85;;;;;;;9.25;57.92;96268.50;3385588;29;20040;-74
2022/01/14 05:54:02;;;;;;;0.63;0.50;;;;;;;9.34;57.36;96266.06;3398907;29;20582;-75
2022/01/14 05:55:43;;;;;;;1.80;0.88;;;;;;;9.36;57.04;96259.41;3399937;29;20118;-73
2022/01/14 05:57:24;;;;;;;2.15;0.95;;;;;;;9.32;57.05;96252.25;3401731;29;20043;-72
2022/01/14 05:59:04;;;;;;;3.17;0.60;;;;;;;9.29;57.03;96247.47;3400626;29;20074;-73
2022/01/14 06:00:45;;;;;;;2.00;0.75;;;;;;;9.24;56.87;96237.69;3388327;29;20130;-73
2022/01/14 06:02:27;;;;;;;1.10;0.63;;;;;;;9.20;56.91;96227.88;3397648;29;20530;-72
2022/01/14 06:04:07;;;;;;;2.35;1.20;;;;;;;9.16;57.29;96215.13;3394822;29;20054;-73
2022/01/14 06:05:49;;;;;;;1.95;0.70;;;;;;;9.10;57.25;96215.41;3401687;29;20055;-74
2022/01/14 06:07:29;;;;;;;2.13;0.70;;;;;;;9.06;57.58;96207.19;3401608;29;20040;-73
2022/01/14 06:09:10;;;;;;;1.20;0.70;;;;;;;9.04;57.84;96219.16;3401359;29;20866;-74
2022/01/14 06:10:51;;;;;;;1.45;0.80;;;;;;;9.03;57.42;96209.56;3401482;29;20043;-74
2022/01/14 06:12:32;;;;;;;0.60;0.60;;;;;;;9.07;57.17;96218.59;3398680;29;20134;-73
2022/01/14 06:14:12;;;;;;;1.40;0.98;;;;;;;9.12;56.99;96205.31;3379625;29;20074;-73
2022/01/14 06:15:53;;;;;;;1.85;0.90;;;;;;;9.15;56.67;96202.09;3384225;29;20040;-75
2022/01/14 06:17:34;;;;;;;2.05;0.70;;;;;;;9.18;56.48;96201.56;3395488;29;20067;-74
2022/01/14 06:19:14;;;;;;;1.40;1.30;;;;;;;9.17;56.38;96197.31;3399686;29;20044;-74
2022/01/14 06:20:55;;;;;;;2.17;0.85;;;;;;;9.15;56.10;96184.28;3387316;29;20048;-73
2022/01/14 06:22:36;;;;;;;1.00;0.80;;;;;;;9.12;56.09;96181.41;3390549;29;20044;-74
2022/01/14 06:24:17;;;;;;;5.27;1.67;;;;;;;9.10;56.09;96181.66;3400116;29;20522;-74
2022/01/14 06:25:58;;;;;;;2.22;0.70;;;;;;;9.08;56.37;96167.84;3391844;29;20299;-74
2022/01/14 06:27:39;;;;;;;2.28;1.00;;;;;;;9.08;56.53;96167.84;3396153;29;20036;-75
2022/01/14 06:29:19;;;;;;;3.90;0.90;;;;;;;9.03;56.53;96167.88;3388268;29;20099;-74
2022/01/14 06:31:00;;;;;;;7.38;0.90;;;;;;;9.02;56.61;96170.81;3388466;29;20532;-74
2022/01/14 06:32:44;;;;;;;1.27;0.52;;;;;;;9.03;56.39;96165.22;3375899;29;20512;-75
2022/01/14 06:34:24;;;;;;;1.27;0.80;;;;;;;9.07;56.24;96152.19;3393928;29;20043;-74
2022/01/14 06:36:06;;;;;;;0.73;0.63;;;;;;;9.06;56.45;96154.06;3400405;29;20075;-73
2022/01/14 06:37:47;;;;;;;5.15;0.80;;;;;;;9.06;56.14;96154.06;3399792;29;20070;-74
2022/01/14 06:39:28;;;;;;;1.52;0.95;;;;;;;9.05;56.35;96157.78;3389529;29;20139;-73
2022/01/14 06:41:10;;;;;;;5.20;1.23;;;;;;;9.07;56.32;96150.34;3388542;29;20123;-73
2022/01/14 06:42:51;;;;;;;1.00;0.68;;;;;;;9.10;56.22;96144.47;3400997;29;20241;-74
2022/01/14 06:44:32;;;;;;;2.13;1.17;;;;;;;9.11;56.20;96140.75;3399859;29;20065;-73
2022/01/14 06:46:12;;;;;;;5.25;1.02;;;;;;;9.09;56.32;96132.25;3401110;29;20134;-74
2022/01/14 06:47:53;;;;;;;0.85;0.77;;;;;;;9.06;56.40;96130.16;3398806;29;20503;-74
2022/01/14 06:49:34;;;;;;;1.75;0.85;;;;;;;9.04;56.38;96128.84;3395662;29;20528;-74
2022/01/14 06:51:15;;;;;;;1.60;1.00;;;;;;;9.07;56.17;96121.13;3398804;29;20081;-73
2022/01/14 06:52:56;;;;;;;2.47;1.10;;;;;;;9.11;56.00;96121.34;3401157;29;20209;-75
2022/01/14 06:54:36;;;;;;;1.58;0.73;;;;;;;9.14;55.90;96118.97;3400703;29;20043;-72
2022/01/14 06:56:17;;;;;;;3.35;0.80;;;;;;;9.13;56.11;96117.34;3403100;29;20039;-75
2022/01/14 06:57:58;;;;;;;12.68;1.00;;;;;;;9.09;56.27;96111.03;3393359;29;20136;-74
2022/01/14 06:59:39;;;;;;;1.30;0.70;;;;;;;9.07;56.37;96113.16;3398650;29;20126;-73
2022/01/14 07:01:19;;;;;;;0.88;0.80;;;;;;;9.05;56.29;96115.28;3395792;29;20139;-74
2022/01/14 07:03:02;;;;;;;1.20;1.10;;;;;;;9.06;56.60;96106.25;3390438;29;20045;-73
2022/01/14 07:04:43;;;;;;;3.92;0.95;;;;;;;9.10;56.39;96109.94;3376684;29;20051;-76
2022/01/14 07:06:24;;;;;;;2.15;0.90;;;;;;;9.12;56.19;96099.06;3395151;29;20586;-73
2022/01/14 07:08:04;;;;;;;1.17;0.70;;;;;;;9.17;56.00;96107.78;3398585;29;20044;-74
2022/01/14 07:10:06;;;;;;;1.38;0.70;;;;;;;9.24;56.26;96096.06;3398470;29;20051;-75
2022/01/14 07:11:55;;;;;;;1.15;0.85;;;;;;;9.29;56.13;96090.72;3399485;29;20046;-74
2022/01/14 07:13:36;;;;;;;2.13;0.90;;;;;;;9.28;56.02;96086.47;3382822;29;20463;-74
2022/01/14 07:15:21;;;;;;;2.58;0.80;;;;;;;9.24;56.14;96075.63;3390981;29;20088;-73
2022/01/14 07:17:04;;;;;;;1.45;0.60;;;;;;;9.19;56.10;96072.97;3397987;29;20107;-74
2022/01/14 07:18:48;;;;;;;1.45;0.65;;;;;;;9.24;56.40;96077.44;3400756;29;20499;-74
2022/01/14 07:20:28;;;;;;;1.52;0.95;;;;;;;9.29;56.24;96080.06;3398506;29;20414;-76
2022/01/14 07:22:09;;;;;;;3.00;0.70;;;;;;;9.30;55.88;96074.50;3398215;29;20123;-74
2022/01/14 07:23:50;;;;;;;3.65;1.25;;;;;;;9.37;56.12;96074.16;3397863;29;20039;-73
2022/01/14 07:25:31;;;;;;;0.95;0.63;;;;;;;9.42;55.90;96071.47;3398725;29;20040;-73
2022/01/14 07:27:13;;;;;;;2.72;1.00;;;;;;;9.46;55.40;96061.13;3379769;29;20420;-74
2022/01/14 07:28:54;;;;;;;1.23;0.70;;;;;;;9.42;55.62;96055.53;3395161;29;20559;-74
2022/01/14 07:30:34;;;;;;;1.30;0.80;;;;;;;9.39;55.56;96038.28;3399559;29;22066;-75
2022/01/14 07:32:16;;;;;;;3.42;0.70;;;;;;;9.43;55.55;96051.81;3398196;29;20415;-74
2022/01/14 07:33:57;;;;;;;0.90;0.70;;;;;;;9.51;55.88;96037.16;3383698;29;20496;-74
2022/01/14 07:35:39;;;;;;;3.38;0.80;;;;;;;9.56;55.77;96035.25;3396339;29;20039;-74
2022/01/14 07:37:20;;;;;;;3.13;0.60;;;;;;;9.64;55.58;96025.09;3383216;29;20104;-78
2022/01/14 07:39:01;;;;;;;3.60;0.60;;;;;;;9.66;55.18;96025.63;3393161;29;20056;-81
2022/01/14 07:40:42;;;;;;;0.70;0.70;;;;;;;9.58;55.16;96017.16;3370117;29;20438;-76
2022/01/14 07:42:22;;;;;;;0.90;0.60;;;;;;;9.45;55.41;96016.97;3391663;29;20411;-77
2022/01/14 07:44:04;;;;;;;0.70;0.70;;;;;;;9.29;55.28;96022.44;3379680;29;20044;-79
2022/01/14 07:45:45;;;;;;;3.40;0.63;;;;;;;9.13;55.42;96019.06;3383187;29;20047;-78
2022/01/14 07:47:27;;;;;;;1.20;0.70;;;;;;;8.97;55.65;96016.78;3395882;29;20554;-79
2022/01/14 07:49:08;;;;;;;2.90;0.80;;;;;;;8.86;55.89;96021.38;3397830;29;20047;-80
2022/01/14 07:50:50;;;;;;;2.75;0.52;;;;;;;8.74;56.10;96014.50;3378957;29;20048;-80
2022/01/14 07:52:31;;;;;;;1.08;0.60;;;;;;;8.66;56.27;96012.44;3389598;29;20043;-77
2022/01/14 07:54:12;;;;;;;1.60;0.80;;;;;;;8.57;56.35;96008.78;3400095;29;20074;-80
2022/01/14 07:55:53;;;;;;;1.67;1.27;;;;;;;8.48;56.41;96000.56;3394912;29;20406;-79
2022/01/14 07:57:35;;;;;;;2.80;0.90;;;;;;;8.43;56.43;95999.81;3396379;29;20046;-78
2022/01/14 07:59:21;;;;;;;2.25;0.80;;;;;;;8.36;56.60;96002.69;3395167;29;20158;-80
2022/01/14 08:01:02;;;;;;;2.08;0.70;;;;;;;8.32;56.66;96000.88;3395629;29;20040;-80
2022/01/14 08:02:46;;;;;;;1.58;0.90;;;;;;;8.26;56.92;95995.59;3363509;29;20132;-78
2022/01/14 08:04:29;;;;;;;3.30;0.80;;;;;;;8.20;56.99;95983.41;3381622;29;20432;-79
2022/01/14 08:06:10;;;;;;;1.58;0.70;;;;;;;8.19;57.01;95981.81;3392313;29;20039;-78
2022/01/14 08:07:53;;;;;;;1.88;1.00;;;;;;;8.15;57.11;95985.28;3388893;29;20549;-80
2022/01/14 08:09:40;;;;;;;1.52;0.52;;;;;;;8.12;57.25;95988.47;3393698;29;20040;-78
2022/01/14 08:11:21;;;;;;;2.10;1.08;;;;;;;8.09;57.45;95985.28;3397537;29;20031;-77
2022/01/14 08:13:02;;;;;;;1.05;0.95;;;;;;;8.06;57.67;95987.69;3399421;29;20031;-76
2022/01/14 08:14:43;;;;;;;2.03;1.75;;;;;;;8.05;57.56;95986.09;3398728;29;20504;-79
2022/01/14 08:16:23;;;;;;;2.50;1.02;;;;;;;8.01;57.44;95975.25;3397189;29;20047;-79
2022/01/14 08:18:06;;;;;;;0.93;0.80;;;;;;;7.99;57.76;95972.06;3396830;29;20046;-78
2022/01/14 08:19:47;;;;;;;6.25;1.90;;;;;;;8.02;58.17;95955.59;3398283;29;20032;-73
2022/01/14 08:21:27;;;;;;;11.02;1.08;;;;;;;8.14;58.65;95950.00;3397651;29;20138;-76
2022/01/14 08:23:08;;;;;;;5.68;1.13;;;;;;;8.28;58.38;95953.66;3398223;29;20047;-75
2022/01/14 08:24:49;;;;;;;4.28;0.90;;;;;;;8.41;58.09;95946.19;3396959;29;20096;-79
2022/01/14 08:26:30;;;;;;;16.92;2.67;;;;;;;8.65;59.56;95936.53;3398136;29;20043;-74
2022/01/14 08:28:10;;;;;;;12.50;3.03;;;;;;;8.92;60.87;95932.63;3395402;29;20050;-73
2022/01/14 08:29:51;;;;;;;9.68;2.05;;;;;;;9.14;60.50;95922.38;3389743;29;20044;-75
2022/01/14 08:31:31;;;;;;;3.38;1.42;;;;;;;9.30;59.97;95928.34;3402386;29;20044;-74
2022/01/14 08:33:12;;;;;;;2.60;1.83;;;;;;;9.43;59.81;95924.25;3400995;29;20058;-74